Grande Dakar — IBDK — position and weather

sailwx.info

Track history (hours):
 
Tides and Currents Weather Stations Pressure Air Temp Water Temp Dewpoint Dewpoint Depression Visibility Wind Speed Wind Dir Waves Ship Positions

Grande Dakar

Last reported at 2017-Nov-18 01:01 UTC. Time now 2017-Nov-18 01:19 UTC.
Position N 52°25' E 004°46'.

Length 236 m; draft 8.8 m.

Type: Ship (hazmat cat A). MMSI: 247341900.

Date/timePositionNaut miles runAvg speedWind from/ knotsBaromVisibWave heightAir tempDewpointWater temp
2017-Nov-18 01:01N 52°25' E 004°46'0 0.0
2017-Nov-18 00:31N 52°25' E 004°46'0 0.0
2017-Nov-18 00:00N 52°25' E 004°46'0 0.0
2017-Nov-17 23:30N 52°25' E 004°46'0 0.0
2017-Nov-17 23:00N 52°25' E 004°46'0 0.0
2017-Nov-17 22:30N 52°25' E 004°46'0 0.0
2017-Nov-17 21:59N 52°25' E 004°46'0 0.0
2017-Nov-17 21:30N 52°25' E 004°46'0 0.0
2017-Nov-17 21:00N 52°25' E 004°46'0 0.0
2017-Nov-17 20:30N 52°25' E 004°46'0 0.0
2017-Nov-17 20:00N 52°25' E 004°46'0 0.0
2017-Nov-17 19:30N 52°25' E 004°46'0 0.0
2017-Nov-17 19:00N 52°25' E 004°46'0 0.0
2017-Nov-17 18:31N 52°25' E 004°46'0 0.0
2017-Nov-17 18:00N 52°25' E 004°46'0 0.0
2017-Nov-17 17:30N 52°25' E 004°46'0 0.0
2017-Nov-17 17:00N 52°25' E 004°46'0 0.0
2017-Nov-17 16:30N 52°25' E 004°46'0 0.0
2017-Nov-17 16:01N 52°25' E 004°46'0 0.0
2017-Nov-17 15:31N 52°25' E 004°46'0 0.0
2017-Nov-17 15:00N 52°25' E 004°46'0 0.0
2017-Nov-17 14:30N 52°25' E 004°46'0 0.0
2017-Nov-17 14:01N 52°25' E 004°46'0 0.0
2017-Nov-17 13:30N 52°25' E 004°46'0 0.0
2017-Nov-17 13:00N 52°25' E 004°46'1 1.3
2017-Nov-17 12:30N 52°26' E 004°46'3 5.3
2017-Nov-17 12:00N 52°27' E 004°42'3 6.0
2017-Nov-17 11:30N 52°28' E 004°37'1 1.7
2017-Nov-17 11:01N 52°28' E 004°36'3 5.6
2017-Nov-17 10:31N 52°28' E 004°31'510.0
2017-Nov-17 10:00N 52°29' E 004°23'5 9.6
2017-Nov-17 09:31N 52°29' E 004°15'815.1
2017-Nov-17 09:00N 52°28' E 004°03'816.3
2017-Nov-17 08:30N 52°26' E 003°50'1215.9
2017-Nov-17 07:46N 52°22' E 003°32'5915.1
2017-Nov-17 03:51N 51°53' E 002°08'515.9
2017-Nov-17 03:31N 51°50' E 002°00'815.1
2017-Nov-17 03:00N 51°48' E 001°49'815.7
2017-Nov-17 02:30N 51°51' E 001°37'611.1
2017-Nov-17 02:01N 51°47' E 001°32'816.7
2017-Nov-17 01:31N 51°40' E 001°25'917.0
2017-Nov-17 01:00N 51°34' E 001°14'816.3
2017-Nov-17 00:31N 51°30' E 001°02'815.0
2017-Nov-17 00:00N 51°29' E 000°50'815.4
2017-Nov-16 23:30N 51°30' E 000°38'611.2
2017-Nov-16 23:01N 51°30' E 000°29'5 9.2
2017-Nov-16 22:31N 51°27' E 000°24'1 2.4
2017-Nov-16 22:01N 51°27' E 000°22'0 0.0
2017-Nov-16 21:31N 51°27' E 000°22'0 0.0
2017-Nov-16 21:01N 51°27' E 000°22'0 0.0
2017-Nov-16 20:31N 51°27' E 000°22'0 0.0
2017-Nov-16 20:01N 51°27' E 000°22'0 0.0
2017-Nov-16 19:31N 51°27' E 000°22'0 0.0
2017-Nov-16 19:01N 51°27' E 000°22'0 0.0
2017-Nov-16 18:31N 51°27' E 000°22'0 0.0
2017-Nov-16 18:01N 51°27' E 000°22'0 0.0
2017-Nov-16 17:31N 51°27' E 000°22'0 0.0
2017-Nov-16 17:01N 51°27' E 000°22'0 0.0
2017-Nov-16 16:31N 51°27' E 000°22'0 0.0
2017-Nov-16 16:01N 51°27' E 000°22'0 0.0
2017-Nov-16 15:31N 51°27' E 000°22'0 0.0
2017-Nov-16 15:01N 51°27' E 000°22'0 0.0
2017-Nov-16 14:31N 51°27' E 000°22'0 0.0
2017-Nov-16 14:01N 51°27' E 000°22'0 0.0
2017-Nov-16 13:31N 51°27' E 000°22'0 0.0
2017-Nov-16 11:25N 51°27' E 000°22'0 0.0
2017-Nov-16 11:01N 51°27' E 000°22'0 0.0
2017-Nov-16 10:31N 51°27' E 000°22'0 0.0
2017-Nov-16 10:01N 51°27' E 000°22'1 1.4
2017-Nov-16 09:31N 51°27' E 000°20'1 1.4
2017-Nov-16 09:01N 51°28' E 000°20'0 0.0
2017-Nov-16 08:31N 51°28' E 000°20'0 0.0
2017-Nov-16 08:01N 51°28' E 000°20'0 0.0
2017-Nov-16 07:31N 51°28' E 000°20'0 0.0
2017-Nov-16 07:01N 51°28' E 000°20'0 0.0
2017-Nov-16 06:31N 51°28' E 000°20'0 0.0
2017-Nov-16 06:01N 51°28' E 000°20'0 0.0
2017-Nov-16 05:31N 51°28' E 000°20'0 0.0
2017-Nov-16 05:01N 51°28' E 000°20'0 0.0
2017-Nov-16 04:31N 51°28' E 000°20'0 0.0
2017-Nov-16 04:01N 51°28' E 000°20'0 0.0
2017-Nov-16 03:31N 51°28' E 000°20'0 0.0
2017-Nov-16 03:01N 51°28' E 000°20'0 0.0
2017-Nov-16 02:31N 51°28' E 000°20'0 0.0
2017-Nov-16 02:01N 51°28' E 000°20'0 0.0
2017-Nov-16 01:31N 51°28' E 000°20'0 0.0
2017-Nov-16 01:01N 51°28' E 000°20'0 0.0
2017-Nov-16 00:31N 51°28' E 000°20'0 0.0
2017-Nov-16 00:01N 51°28' E 000°20'0 0.0
2017-Nov-15 23:31N 51°28' E 000°20'0 0.0
2017-Nov-15 23:01N 51°28' E 000°20'0 0.0
2017-Nov-15 22:31N 51°28' E 000°20'0 0.0
2017-Nov-15 22:01N 51°28' E 000°20'0 0.0
2017-Nov-15 21:31N 51°28' E 000°20'0 0.0
2017-Nov-15 21:01N 51°28' E 000°20'0 0.0
2017-Nov-15 20:31N 51°28' E 000°20'0 0.0
2017-Nov-15 20:01N 51°28' E 000°20'0 0.0
2017-Nov-15 19:31N 51°28' E 000°20'1 2.7
2017-Nov-15 19:01N 51°27' E 000°22'4 8.3
2017-Nov-15 18:31N 51°29' E 000°28'5 9.6
2017-Nov-15 18:00N 51°30' E 000°35'612.6
2017-Nov-15 17:30N 51°29' E 000°45'611.8
2017-Nov-15 17:00N 51°29' E 000°55'612.2
2017-Nov-15 16:30N 51°31' E 001°04'815.2
2017-Nov-15 15:58N 51°35' E 001°15'816.6
2017-Nov-15 15:31N 51°40' E 001°25'816.3
2017-Nov-15 15:01N 51°46' E 001°33'714.6
2017-Nov-15 14:30N 51°51' E 001°41'4 7.7
2017-Nov-15 14:00N 51°51' E 001°48'4 8.0
2017-Nov-15 13:30N 51°47' E 001°49'5 9.6
2017-Nov-15 13:01N 51°42' E 001°49'5 9.7
2017-Nov-15 12:30N 51°37' E 001°51'5 9.3
2017-Nov-15 12:00N 51°34' E 001°56'611.2
2017-Nov-15 11:30N 51°29' E 001°60'713.4
2017-Nov-15 11:00N 51°24' E 002°07'714.8
2017-Nov-15 10:30N 51°21' E 002°18'612.3
2017-Nov-15 10:00N 51°22' E 002°28'5 9.9
2017-Nov-15 09:28N 51°23' E 002°36'510.2
2017-Nov-15 09:00N 51°22' E 002°44'613.2
2017-Nov-15 08:30N 51°23' E 002°54'815.1
2017-Nov-15 08:01N 51°24' E 003°06'815.8
2017-Nov-15 07:30N 51°24' E 003°19'815.7
2017-Nov-15 07:00N 51°25' E 003°31'612.6
2017-Nov-15 06:30N 51°27' E 003°41'0 0.8
2017-Nov-15 06:01N 51°28' E 003°41'0 0.0
2017-Nov-15 05:30N 51°28' E 003°41'0 0.0
2017-Nov-15 05:00N 51°28' E 003°41'0 0.0
2017-Nov-15 04:28N 51°28' E 003°41'0 0.0
2017-Nov-15 04:00N 51°28' E 003°41'0 0.0
2017-Nov-15 03:31N 51°28' E 003°41'0 0.0
2017-Nov-15 03:00N 51°28' E 003°41'0 0.0
2017-Nov-15 02:31N 51°28' E 003°41'0 0.0
2017-Nov-15 01:58N 51°28' E 003°41'0 0.0
2017-Nov-15 01:27N 51°28' E 003°41'0 0.0
2017-Nov-15 00:55N 51°28' E 003°41'0 0.0
2017-Nov-15 00:31N 51°28' E 003°41'0 0.0
2017-Nov-15 00:01N 51°28' E 003°41'0 0.0
2017-Nov-14 23:28N 51°28' E 003°41'0 0.0
2017-Nov-14 23:01N 51°28' E 003°41'0 0.0
2017-Nov-14 22:30N 51°28' E 003°41'0 0.0
2017-Nov-14 21:54N 51°28' E 003°41'0 0.0
2017-Nov-14 21:30N 51°28' E 003°41'0 0.0
2017-Nov-14 21:00N 51°28' E 003°41'0 0.0
2017-Nov-14 20:30N 51°28' E 003°41'0 0.0
2017-Nov-14 20:00N 51°28' E 003°41'0 0.0
2017-Nov-14 19:30N 51°28' E 003°41'0 0.0
2017-Nov-14 18:57N 51°28' E 003°41'0 0.0
2017-Nov-14 18:30N 51°28' E 003°41'0 0.0
2017-Nov-14 18:00N 51°28' E 003°41'0 0.0
2017-Nov-14 17:27N 51°28' E 003°41'0 0.0
2017-Nov-14 17:00N 51°28' E 003°41'0 0.0
2017-Nov-14 16:24N 51°28' E 003°41'0 0.0
2017-Nov-14 16:00N 51°28' E 003°41'0 0.0
2017-Nov-14 15:30N 51°28' E 003°41'0 0.0
2017-Nov-14 15:00N 51°28' E 003°41'0 0.0
2017-Nov-14 14:31N 51°28' E 003°41'0 0.0
2017-Nov-14 14:00N 51°28' E 003°41'1 1.2
2017-Nov-14 13:30N 51°27' E 003°41'3 6.6
2017-Nov-14 13:00N 51°26' E 003°36'714.3
2017-Nov-14 12:30N 51°25' E 003°24'815.7
2017-Nov-14 12:00N 51°24' E 003°12'815.5
2017-Nov-14 11:30N 51°23' E 002°60'816.4
2017-Nov-14 11:00N 51°22' E 002°47'611.9
2017-Nov-14 10:30N 51°22' E 002°37'815.7
2017-Nov-14 10:00N 51°21' E 002°25'815.9
2017-Nov-14 09:30N 51°17' E 002°14'815.3
2017-Nov-14 09:00N 51°13' E 002°04'815.4
2017-Nov-14 08:30N 51°09' E 001°53'815.5
2017-Nov-14 08:00N 51°04' E 001°44'815.7
2017-Nov-14 07:30N 50°58' E 001°35'815.9
2017-Nov-14 07:00N 50°52' E 001°28'916.1
2017-Nov-14 06:28N 50°44' E 001°22'1115.3
2017-Nov-14 05:45N 50°36' E 001°11'715.7
2017-Nov-14 05:18N 50°32' E 001°02'515.4
2017-Nov-14 05:00N 50°30' E 000°55'815.7
2017-Nov-14 04:29N 50°28' E 000°43'1115.8
2017-Nov-14 03:46N 50°25' E 000°25'815.8
2017-Nov-14 03:17N 50°23' E 000°14'416.0
2017-Nov-14 03:00N 50°22' E 000°07'816.1
2017-Nov-14 02:30N 50°19' W 000°05'816.0
2017-Nov-14 02:00N 50°17' W 000°17'815.9
2017-Nov-14 01:29N 50°15' W 000°30'77015.4
2017-Nov-11 23:30N 39°16' W 009°51'816.4
2017-Nov-11 23:00N 39°08' W 009°51'816.2
2017-Nov-11 22:30N 38°60' W 009°51'816.4
2017-Nov-11 22:00N 38°51' W 009°51'816.3
2017-Nov-11 21:30N 38°43' W 009°50'816.2
2017-Nov-11 21:00N 38°35' W 009°48'816.4
2017-Nov-11 20:30N 38°27' W 009°46'816.2
2017-Nov-11 20:00N 38°20' W 009°44'816.2
2017-Nov-11 19:30N 38°12' W 009°41'816.1
2017-Nov-11 19:00N 38°04' W 009°39'816.8
2017-Nov-11 18:30N 37°56' W 009°36'816.9
2017-Nov-11 18:00N 37°47' W 009°34'817.0
2017-Nov-11 17:30N 37°39' W 009°32'816.6
2017-Nov-11 17:00N 37°31' W 009°30'816.0
2017-Nov-11 16:30N 37°23' W 009°27'815.9
2017-Nov-11 16:00N 37°16' W 009°25'816.2
2017-Nov-11 15:30N 37°08' W 009°22'816.1
2017-Nov-11 15:00N 36°60' W 009°20'815.9
2017-Nov-11 14:30N 36°52' W 009°17'815.8
2017-Nov-11 14:00N 36°47' W 009°10'1816.2
2017-Nov-11 12:56N 36°40' W 008°50'16216.4
2017-Nov-11 03:05N 35°58' W 005°36'215.3
2017-Nov-11 02:57N 35°58' W 005°34'715.4
2017-Nov-11 02:30N 35°60' W 005°25'815.7
2017-Nov-11 02:00N 36°02' W 005°16'22315.7
2017-Nov-10 11:48N 37°18' W 000°55'717.4
2017-Nov-10 11:26N 37°23' W 000°49'717.2
2017-Nov-10 11:00N 37°28' W 000°42'817.1
2017-Nov-10 10:31N 37°34' W 000°34'816.7
2017-Nov-10 10:00N 37°40' W 000°28'916.4
2017-Nov-10 09:26N 37°48' W 000°22'9 0.2
2017-Nov-08 09:30N 37°54' W 000°14'1117.7
2017-Nov-08 08:54N 37°45' W 000°20'717.8
2017-Nov-08 08:30N 37°39' W 000°25'917.6
2017-Nov-08 08:00N 37°32' W 000°32'917.7
2017-Nov-08 07:30N 37°26' W 000°40'917.6
2017-Nov-08 07:00N 37°21' W 000°48'1017.5
2017-Nov-08 06:27N 37°14' W 000°57'817.7
2017-Nov-08 05:59N 37°08' W 001°05'  
Track history (hours):
 
Tides and Currents Weather Stations Pressure Air Temp Water Temp Dewpoint Dewpoint Depression Visibility Wind Speed Wind Dir Waves Ship Positions

Grande Dakar

Last reported at 2017-Nov-18 01:01 UTC. Time now 2017-Nov-18 01:19 UTC.
Position N 52°25' E 004°46'.

Length 236 m; draft 8.8 m.

Type: Ship (hazmat cat A). MMSI: 247341900.

Date/timePositionNaut miles runAvg speedWind from/ knotsBaromVisibWave heightAir tempDewpointWater temp
2017-Nov-18 01:01N 52°25' E 004°46'0 0.0
2017-Nov-18 00:31N 52°25' E 004°46'0 0.0
2017-Nov-18 00:00N 52°25' E 004°46'0 0.0
2017-Nov-17 23:30N 52°25' E 004°46'0 0.0
2017-Nov-17 23:00N 52°25' E 004°46'0 0.0
2017-Nov-17 22:30N 52°25' E 004°46'0 0.0
2017-Nov-17 21:59N 52°25' E 004°46'0 0.0
2017-Nov-17 21:30N 52°25' E 004°46'0 0.0
2017-Nov-17 21:00N 52°25' E 004°46'0 0.0
2017-Nov-17 20:30N 52°25' E 004°46'0 0.0
2017-Nov-17 20:00N 52°25' E 004°46'0 0.0
2017-Nov-17 19:30N 52°25' E 004°46'0 0.0
2017-Nov-17 19:00N 52°25' E 004°46'0 0.0
2017-Nov-17 18:31N 52°25' E 004°46'0 0.0
2017-Nov-17 18:00N 52°25' E 004°46'0 0.0
2017-Nov-17 17:30N 52°25' E 004°46'0 0.0
2017-Nov-17 17:00N 52°25' E 004°46'0 0.0
2017-Nov-17 16:30N 52°25' E 004°46'0 0.0
2017-Nov-17 16:01N 52°25' E 004°46'0 0.0
2017-Nov-17 15:31N 52°25' E 004°46'0 0.0
2017-Nov-17 15:00N 52°25' E 004°46'0 0.0
2017-Nov-17 14:30N 52°25' E 004°46'0 0.0
2017-Nov-17 14:01N 52°25' E 004°46'0 0.0
2017-Nov-17 13:30N 52°25' E 004°46'0 0.0
2017-Nov-17 13:00N 52°25' E 004°46'1 1.3
2017-Nov-17 12:30N 52°26' E 004°46'3 5.3
2017-Nov-17 12:00N 52°27' E 004°42'3 6.0
2017-Nov-17 11:30N 52°28' E 004°37'1 1.7
2017-Nov-17 11:01N 52°28' E 004°36'3 5.6
2017-Nov-17 10:31N 52°28' E 004°31'510.0
2017-Nov-17 10:00N 52°29' E 004°23'5 9.6
2017-Nov-17 09:31N 52°29' E 004°15'815.1
2017-Nov-17 09:00N 52°28' E 004°03'816.3
2017-Nov-17 08:30N 52°26' E 003°50'1215.9
2017-Nov-17 07:46N 52°22' E 003°32'5915.1
2017-Nov-17 03:51N 51°53' E 002°08'515.9
2017-Nov-17 03:31N 51°50' E 002°00'815.1
2017-Nov-17 03:00N 51°48' E 001°49'815.7
2017-Nov-17 02:30N 51°51' E 001°37'611.1
2017-Nov-17 02:01N 51°47' E 001°32'816.7
2017-Nov-17 01:31N 51°40' E 001°25'917.0
2017-Nov-17 01:00N 51°34' E 001°14'816.3
2017-Nov-17 00:31N 51°30' E 001°02'815.0
2017-Nov-17 00:00N 51°29' E 000°50'815.4
2017-Nov-16 23:30N 51°30' E 000°38'611.2
2017-Nov-16 23:01N 51°30' E 000°29'5 9.2
2017-Nov-16 22:31N 51°27' E 000°24'1 2.4
2017-Nov-16 22:01N 51°27' E 000°22'0 0.0
2017-Nov-16 21:31N 51°27' E 000°22'0 0.0
2017-Nov-16 21:01N 51°27' E 000°22'0 0.0
2017-Nov-16 20:31N 51°27' E 000°22'0 0.0
2017-Nov-16 20:01N 51°27' E 000°22'0 0.0
2017-Nov-16 19:31N 51°27' E 000°22'0 0.0
2017-Nov-16 19:01N 51°27' E 000°22'0 0.0
2017-Nov-16 18:31N 51°27' E 000°22'0 0.0
2017-Nov-16 18:01N 51°27' E 000°22'0 0.0
2017-Nov-16 17:31N 51°27' E 000°22'0 0.0
2017-Nov-16 17:01N 51°27' E 000°22'0 0.0
2017-Nov-16 16:31N 51°27' E 000°22'0 0.0
2017-Nov-16 16:01N 51°27' E 000°22'0 0.0
2017-Nov-16 15:31N 51°27' E 000°22'0 0.0
2017-Nov-16 15:01N 51°27' E 000°22'0 0.0
2017-Nov-16 14:31N 51°27' E 000°22'0 0.0
2017-Nov-16 14:01N 51°27' E 000°22'0 0.0
2017-Nov-16 13:31N 51°27' E 000°22'0 0.0
2017-Nov-16 11:25N 51°27' E 000°22'0 0.0
2017-Nov-16 11:01N 51°27' E 000°22'0 0.0
2017-Nov-16 10:31N 51°27' E 000°22'0 0.0
2017-Nov-16 10:01N 51°27' E 000°22'1 1.4
2017-Nov-16 09:31N 51°27' E 000°20'1 1.4
2017-Nov-16 09:01N 51°28' E 000°20'0 0.0
2017-Nov-16 08:31N 51°28' E 000°20'0 0.0
2017-Nov-16 08:01N 51°28' E 000°20'0 0.0
2017-Nov-16 07:31N 51°28' E 000°20'0 0.0
2017-Nov-16 07:01N 51°28' E 000°20'0 0.0
2017-Nov-16 06:31N 51°28' E 000°20'0 0.0
2017-Nov-16 06:01N 51°28' E 000°20'0 0.0
2017-Nov-16 05:31N 51°28' E 000°20'0 0.0
2017-Nov-16 05:01N 51°28' E 000°20'0 0.0
2017-Nov-16 04:31N 51°28' E 000°20'0 0.0
2017-Nov-16 04:01N 51°28' E 000°20'0 0.0
2017-Nov-16 03:31N 51°28' E 000°20'0 0.0
2017-Nov-16 03:01N 51°28' E 000°20'0 0.0
2017-Nov-16 02:31N 51°28' E 000°20'0 0.0
2017-Nov-16 02:01N 51°28' E 000°20'0 0.0
2017-Nov-16 01:31N 51°28' E 000°20'0 0.0
2017-Nov-16 01:01N 51°28' E 000°20'0 0.0
2017-Nov-16 00:31N 51°28' E 000°20'0 0.0
2017-Nov-16 00:01N 51°28' E 000°20'0 0.0
2017-Nov-15 23:31N 51°28' E 000°20'0 0.0
2017-Nov-15 23:01N 51°28' E 000°20'0 0.0
2017-Nov-15 22:31N 51°28' E 000°20'0 0.0
2017-Nov-15 22:01N 51°28' E 000°20'0 0.0
2017-Nov-15 21:31N 51°28' E 000°20'0 0.0
2017-Nov-15 21:01N 51°28' E 000°20'0 0.0
2017-Nov-15 20:31N 51°28' E 000°20'0 0.0
2017-Nov-15 20:01N 51°28' E 000°20'0 0.0
2017-Nov-15 19:31N 51°28' E 000°20'1 2.7
2017-Nov-15 19:01N 51°27' E 000°22'4 8.3
2017-Nov-15 18:31N 51°29' E 000°28'5 9.6
2017-Nov-15 18:00N 51°30' E 000°35'612.6
2017-Nov-15 17:30N 51°29' E 000°45'611.8
2017-Nov-15 17:00N 51°29' E 000°55'612.2
2017-Nov-15 16:30N 51°31' E 001°04'815.2
2017-Nov-15 15:58N 51°35' E 001°15'816.6
2017-Nov-15 15:31N 51°40' E 001°25'816.3
2017-Nov-15 15:01N 51°46' E 001°33'714.6
2017-Nov-15 14:30N 51°51' E 001°41'4 7.7
2017-Nov-15 14:00N 51°51' E 001°48'4 8.0
2017-Nov-15 13:30N 51°47' E 001°49'5 9.6
2017-Nov-15 13:01N 51°42' E 001°49'5 9.7
2017-Nov-15 12:30N 51°37' E 001°51'5 9.3
2017-Nov-15 12:00N 51°34' E 001°56'611.2
2017-Nov-15 11:30N 51°29' E 001°60'713.4
2017-Nov-15 11:00N 51°24' E 002°07'714.8
2017-Nov-15 10:30N 51°21' E 002°18'612.3
2017-Nov-15 10:00N 51°22' E 002°28'5 9.9
2017-Nov-15 09:28N 51°23' E 002°36'510.2
2017-Nov-15 09:00N 51°22' E 002°44'613.2
2017-Nov-15 08:30N 51°23' E 002°54'815.1
2017-Nov-15 08:01N 51°24' E 003°06'815.8
2017-Nov-15 07:30N 51°24' E 003°19'815.7
2017-Nov-15 07:00N 51°25' E 003°31'612.6
2017-Nov-15 06:30N 51°27' E 003°41'0 0.8
2017-Nov-15 06:01N 51°28' E 003°41'0 0.0
2017-Nov-15 05:30N 51°28' E 003°41'0 0.0
2017-Nov-15 05:00N 51°28' E 003°41'0 0.0
2017-Nov-15 04:28N 51°28' E 003°41'0 0.0
2017-Nov-15 04:00N 51°28' E 003°41'0 0.0
2017-Nov-15 03:31N 51°28' E 003°41'0 0.0
2017-Nov-15 03:00N 51°28' E 003°41'0 0.0
2017-Nov-15 02:31N 51°28' E 003°41'0 0.0
2017-Nov-15 01:58N 51°28' E 003°41'0 0.0
2017-Nov-15 01:27N 51°28' E 003°41'0 0.0
2017-Nov-15 00:55N 51°28' E 003°41'0 0.0
2017-Nov-15 00:31N 51°28' E 003°41'0 0.0
2017-Nov-15 00:01N 51°28' E 003°41'0 0.0
2017-Nov-14 23:28N 51°28' E 003°41'0 0.0
2017-Nov-14 23:01N 51°28' E 003°41'0 0.0
2017-Nov-14 22:30N 51°28' E 003°41'0 0.0
2017-Nov-14 21:54N 51°28' E 003°41'0 0.0
2017-Nov-14 21:30N 51°28' E 003°41'0 0.0
2017-Nov-14 21:00N 51°28' E 003°41'0 0.0
2017-Nov-14 20:30N 51°28' E 003°41'0 0.0
2017-Nov-14 20:00N 51°28' E 003°41'0 0.0
2017-Nov-14 19:30N 51°28' E 003°41'0 0.0
2017-Nov-14 18:57N 51°28' E 003°41'0 0.0
2017-Nov-14 18:30N 51°28' E 003°41'0 0.0
2017-Nov-14 18:00N 51°28' E 003°41'0 0.0
2017-Nov-14 17:27N 51°28' E 003°41'0 0.0
2017-Nov-14 17:00N 51°28' E 003°41'0 0.0
2017-Nov-14 16:24N 51°28' E 003°41'0 0.0
2017-Nov-14 16:00N 51°28' E 003°41'0 0.0
2017-Nov-14 15:30N 51°28' E 003°41'0 0.0
2017-Nov-14 15:00N 51°28' E 003°41'0 0.0
2017-Nov-14 14:31N 51°28' E 003°41'0 0.0
2017-Nov-14 14:00N 51°28' E 003°41'1 1.2
2017-Nov-14 13:30N 51°27' E 003°41'3 6.6
2017-Nov-14 13:00N 51°26' E 003°36'714.3
2017-Nov-14 12:30N 51°25' E 003°24'815.7
2017-Nov-14 12:00N 51°24' E 003°12'815.5
2017-Nov-14 11:30N 51°23' E 002°60'816.4
2017-Nov-14 11:00N 51°22' E 002°47'611.9
2017-Nov-14 10:30N 51°22' E 002°37'815.7
2017-Nov-14 10:00N 51°21' E 002°25'815.9
2017-Nov-14 09:30N 51°17' E 002°14'815.3
2017-Nov-14 09:00N 51°13' E 002°04'815.4
2017-Nov-14 08:30N 51°09' E 001°53'815.5
2017-Nov-14 08:00N 51°04' E 001°44'815.7
2017-Nov-14 07:30N 50°58' E 001°35'815.9
2017-Nov-14 07:00N 50°52' E 001°28'916.1
2017-Nov-14 06:28N 50°44' E 001°22'1115.3
2017-Nov-14 05:45N 50°36' E 001°11'715.7
2017-Nov-14 05:18N 50°32' E 001°02'515.4
2017-Nov-14 05:00N 50°30' E 000°55'815.7
2017-Nov-14 04:29N 50°28' E 000°43'1115.8
2017-Nov-14 03:46N 50°25' E 000°25'815.8
2017-Nov-14 03:17N 50°23' E 000°14'416.0
2017-Nov-14 03:00N 50°22' E 000°07'816.1
2017-Nov-14 02:30N 50°19' W 000°05'816.0
2017-Nov-14 02:00N 50°17' W 000°17'815.9
2017-Nov-14 01:29N 50°15' W 000°30'77015.4
2017-Nov-11 23:30N 39°16' W 009°51'816.4
2017-Nov-11 23:00N 39°08' W 009°51'816.2
2017-Nov-11 22:30N 38°60' W 009°51'816.4
2017-Nov-11 22:00N 38°51' W 009°51'816.3
2017-Nov-11 21:30N 38°43' W 009°50'816.2
2017-Nov-11 21:00N 38°35' W 009°48'816.4
2017-Nov-11 20:30N 38°27' W 009°46'816.2
2017-Nov-11 20:00N 38°20' W 009°44'816.2
2017-Nov-11 19:30N 38°12' W 009°41'816.1
2017-Nov-11 19:00N 38°04' W 009°39'816.8
2017-Nov-11 18:30N 37°56' W 009°36'816.9
2017-Nov-11 18:00N 37°47' W 009°34'817.0
2017-Nov-11 17:30N 37°39' W 009°32'816.6
2017-Nov-11 17:00N 37°31' W 009°30'816.0
2017-Nov-11 16:30N 37°23' W 009°27'815.9
2017-Nov-11 16:00N 37°16' W 009°25'816.2
2017-Nov-11 15:30N 37°08' W 009°22'816.1
2017-Nov-11 15:00N 36°60' W 009°20'815.9
2017-Nov-11 14:30N 36°52' W 009°17'815.8
2017-Nov-11 14:00N 36°47' W 009°10'1816.2
2017-Nov-11 12:56N 36°40' W 008°50'16216.4
2017-Nov-11 03:05N 35°58' W 005°36'215.3
2017-Nov-11 02:57N 35°58' W 005°34'715.4
2017-Nov-11 02:30N 35°60' W 005°25'815.7
2017-Nov-11 02:00N 36°02' W 005°16'22315.7
2017-Nov-10 11:48N 37°18' W 000°55'717.4
2017-Nov-10 11:26N 37°23' W 000°49'717.2
2017-Nov-10 11:00N 37°28' W 000°42'817.1
2017-Nov-10 10:31N 37°34' W 000°34'816.7
2017-Nov-10 10:00N 37°40' W 000°28'916.4
2017-Nov-10 09:26N 37°48' W 000°22'9 0.2
2017-Nov-08 09:30N 37°54' W 000°14'1117.7
2017-Nov-08 08:54N 37°45' W 000°20'717.8
2017-Nov-08 08:30N 37°39' W 000°25'917.6
2017-Nov-08 08:00N 37°32' W 000°32'917.7
2017-Nov-08 07:30N 37°26' W 000°40'917.6
2017-Nov-08 07:00N 37°21' W 000°48'1017.5
2017-Nov-08 06:27N 37°14' W 000°57'817.7
2017-Nov-08 05:59N 37°08' W 001°05'  

Dump ship's entire track history